Graysville, Indiana
Current Conditions -  °F | °C
As of 11:15 AM on Saturday 25 Oct 2014 (Local Time) from KRSV Reporting Station
Clear Clear  
Wind Chill: 67°   Ceiling: Unl
Heat Index: 67°   Visibility: 10mi
Dew Point: 59°   Wind: 5mph
Humidity: 75%   Direction: 290°WNW
Pressure: 30.02"   Gusts: NA
Location:  39.12°N, 87.56°W
Report Text: KRSV 251515Z AUTO 29004KT 10SM CLR 20/15 A3002 RMK AO2 T01960150
Loading
Personal Weather Stations






























Interactive Weather Map
Tropical Storm Tracking
New forecast layout! Learn more

10-Day Weather Forecast

Advertisements
Track Severe Weather on mobile